Aviation Digital Data Service (ADDS)

Output produced by METARs form (1823 UTC 22 November 2017)
found at http://www.aviationweather.gov/adds/metars/
 
KCAE 221739Z 2218/2318 36007KT P6SM BKN250 
     FM222300 03004KT P6SM SCT250 
     FM231400 06005KT P6SM SCT040 BKN250
       
KCAK 221731Z 2218/2318 31010KT P6SM OVC025 
     FM222000 30008KT P6SM OVC035 
     FM230000 28003KT P6SM SCT035 
     FM231400 22008KT P6SM BKN035 OVC100
       
KCAR 221729Z 2218/2318 VRB02KT P6SM VCSH OVC070 
     FM222000 00000KT 5SM -RA OVC030 
     FM222300 34005KT 1SM -SN OVC003 
     FM230500 33013KT P6SM BKN015 
     FM230800 32013KT P6SM SCT020
       
TAF KCBM 221700Z 2217/2323 35009KT 9999 SKC QNH3004INS 
     TEMPO 2218/2223 35012G18KT TX13/2221Z TNM02/2312Z
       
KCDC 221725Z 2218/2318 VRB05KT P6SM SKC
       
KCDR 221730Z 2218/2318 25006KT P6SM BKN100 
     FM221900 30014G22KT P6SM BKN100 
     FM222300 26005KT P6SM SCT200
       
KCDS 221725Z 2218/2318 20007KT P6SM SCT250
       
KCEC 221736Z 2218/2318 16009KT 6SM -RA BR SCT009 SCT035 OVC060 
     TEMPO 2219/2220 16012KT BKN009 OVC050 
     FM230000 17012KT 5SM -RA BR SCT005 OVC025 
     FM230700 16010KT 4SM -RA OVC015
       
TAF AMD KCEF 221727Z 2217/2317 23009KT 9000 -RA OVC045 620509 530505 QNH2983INS 
     BECMG 2218/2219 27009KT 8000 -RA BKN009 OVC030 620509 530505 QNH2980INS 
     BECMG 2219/2220 31012G18KT 9999 NSW SCT009 BKN030 620303 QNH2981INS 
     BECMG 2301/2302 31009KT 9999 SCT030 QNH2993INS TX08/2217Z TNM04/2311Z
       
KCGI 221720Z 2218/2318 02008KT P6SM SCT250 
     FM230000 00000KT P6SM SCT250 
     FM231500 20005KT P6SM SCT100
       
KCHA 221721Z 2218/2318 01012KT P6SM FEW250 
     FM230000 36006KT P6SM FEW250 
     FM230900 36003KT P6SM SCT035
       
KCHO 221726Z 2218/2318 33011G19KT P6SM SKC 
     FM222200 34007KT P6SM SKC 
     FM230400 VRB03KT P6SM SKC
       
KCHS 221739Z 2218/2318 01007KT P6SM SCT025 
     FM231500 03007KT P6SM OVC050
       
KCID 221736Z 2218/2318 24008KT P6SM SCT120 
     FM230000 18010KT P6SM OVC080 
     FM231100 29007KT P6SM SKC
       
KCKB 221728Z 2218/2318 31007KT P6SM BKN040 
     FM222200 32005KT P6SM SCT025
       
KCKV 221735Z 2218/2318 02010G18KT P6SM SKC 
     FM222100 01008KT P6SM SKC 
     FM230300 VRB02KT P6SM SKC
       
KCLE 221730Z 2218/2324 31010KT P6SM OVC035 
     FM222100 30008KT P6SM BKN035 
     FM230000 26003KT P6SM SCT035 
     FM231200 21008KT P6SM BKN035 OVC100
       
KCLL 221723Z 2218/2318 36013KT P6SM SKC 
     FM230100 35004KT P6SM SKC 
     FM231500 01007KT P6SM SKC
       
KCLM 221729Z 2218/2318 11003KT 1/4SM FG VV001 
     FM222000 25002KT 5SM BR OVC030 
     FM222100 00000KT P6SM -SHRA SCT025 OVC040 
     FM230500 27007KT 5SM -SHRA BKN015 OVC030
       
KCLT 221720Z 2218/2318 34010G15KT P6SM FEW250 
     FM222100 01008KT P6SM SCT250 
     FM230600 03006KT P6SM SCT250 
     FM231600 05004KT P6SM FEW250
       
KCMA 221727Z 2218/2318 09012KT P6SM SKC 
     FM221900 09012G20KT P6SM SKC 
     FM222300 26008KT P6SM SKC 
     FM230300 VRB03KT P6SM SKC 
     FM231100 06006KT P6SM SKC
       
KCMH 221733Z 2218/2318 34010KT P6SM OVC035 
     FM230000 34004KT P6SM SCT035 
     FM230200 VRB03KT P6SM SKC 
     FM230700 VRB03KT P6SM BKN250 
     FM231500 20007KT P6SM BKN120
       
KCMI 221732Z 2218/2318 33006KT P6SM SKC 
     FM230200 19005KT P6SM BKN220 
     FM230700 18006KT P6SM BKN120 
     FM231100 18009KT P6SM BKN080 
     FM231500 20011KT P6SM SCT100
       
KCMX 221730Z 2218/2318 25010KT P6SM BKN015 
     FM221900 25010KT P6SM BKN200 
     FM230300 23009KT P6SM BKN040 
     FM230600 24010KT P6SM -SHSN BKN025 
     FM231100 28011G21KT P6SM BKN025 
     FM231700 30011G20KT P6SM BKN035
       
KCNM 221720Z 2218/2318 15008KT P6SM SCT200 
     FM230700 32008KT P6SM FEW200
       
KCNU 221725Z 2218/2318 21005KT P6SM FEW250 
     FM231600 28008KT P6SM SCT250
       
KCNY 221733Z 2218/2318 00000KT P6SM FEW250 
     FM230200 32004KT P6SM SKC 
     FM231200 00000KT P6SM SKC
       
KCOD 221725Z 2218/2318 26012G20KT P6SM SCT080 BKN120 
     FM230500 23015G25KT P6SM SCT100 BKN150 WS012/26045KT 
     FM231400 24015G25KT P6SM BKN150 AMD LTD TO CLD VIS AND WIND
       
KCOE 221738Z 2218/2318 00000KT P6SM OVC023 
     FM222200 08006KT P6SM BKN025 OVC050 
     FM230100 10006KT P6SM VCSH SCT050 OVC070 
     FM230800 20008KT P6SM -SHRA BKN018 OVC050 
     FM231500 20012G17KT P6SM -RA BKN025 OVC050
       
TAF AMD KCOF 221255Z 2212/2317 34005KT 9999 FEW030 QNH2992INS 
     BECMG 2215/2216 03009KT 9999 SCT030 SCT080 QNH2990INS 
     BECMG 2311/2312 14007KT 6000 -SHRA SCT030 BKN050 OVC200 QNH2986INS TX25/2218Z TN20/2212Z FCST BY USAF WX MET TECH
       
KCON 221738Z 2218/2318 33005KT 3SM -RA BR SCT005 OVC020 
     FM222000 32008KT P6SM -SHRA BKN030 
     FM222300 31010G18KT P6SM SCT050 
     FM230600 31005KT P6SM SKC
       
KCOS 221725Z 2218/2318 VRB06KT P6SM BKN250 
     FM222000 35009KT P6SM BKN250 
     FM230400 35008KT P6SM SCT080 BKN250
       
KCOU 221723Z 2218/2318 VRB03KT P6SM SKC 
     FM230700 20007KT P6SM SCT140 
     FM231600 25007KT P6SM SKC
       
KCPS 221723Z 2218/2318 VRB03KT P6SM SKC 
     FM230800 18004KT P6SM BKN150 
     FM231700 26005KT P6SM FEW250
       
KCRE 221720Z 2218/2318 33010KT P6SM BKN060 
     FM230200 01005KT P6SM BKN250
       
KCRG 221720Z 2218/2318 03007KT P6SM SCT035 
     FM222300 05005KT P6SM OVC018 
     FM230900 02005KT 4SM -RA BR OVC010 
     FM231200 03010KT 4SM -RA BR OVC007
       
KCRP 221722Z 2218/2318 36015G22KT P6SM FEW025 SCT040 
     FM222300 36010KT P6SM SKC
       
KCRQ 221723Z 2218/2318 VRB06KT P6SM SKC
       
KCRW 221728Z 2218/2318 32004KT P6SM SCT025 
     FM230500 00000KT P6SM FEW250
       
KCSG 221723Z 2218/2318 36007KT P6SM SCT250 
     FM230800 03004KT P6SM SCT030 
     FM231200 08005KT P6SM BKN025
       
KCSM 221720Z 2218/2318 23010KT P6SM SCT250 
     FM222000 19010KT P6SM SCT250 
     FM231200 27008KT P6SM SKC
       
KCSV 221735Z 2218/2318 01009G17KT P6SM SKC 
     FM222100 01008KT P6SM SKC 
     FM230300 VRB02KT P6SM SKC
       
KCTB 221741Z 2218/2318 27025G33KT P6SM SCT080 BKN150 
     TEMPO 2219/2222 26032G42KT 
     FM230400 24013G21KT P6SM BKN150 
     FM231700 23021G33KT P6SM SCT150
       
KCUB 221739Z 2218/2318 36006KT P6SM BKN250 
     FM222300 03004KT P6SM SCT250 
     FM231400 06005KT P6SM SCT040 BKN250
       
KCVG 221733Z 2218/2324 36006KT P6SM BKN035 
     TEMPO 2218/2220 BKN030 
     FM222100 34004KT P6SM SCT035 
     FM230000 VRB03KT P6SM SKC 
     FM230600 VRB02KT P6SM BKN250 
     FM231500 20005KT P6SM BKN120 
     FM232100 21005KT P6SM BKN060
       
TAF KCVS 221800Z 2218/2324 23010KT 9999 FEW300 QNH3032INS 
     BECMG 2302/2303 VRB06KT 9999 FEW300 QNH3039INS 
     BECMG 2319/2320 23009KT 9999 FEW200 QNH3035INS TX16/2221Z TN02/2313Z
       
KCWA 221722Z 2218/2318 22006KT P6SM BKN200 
     FM222300 22006KT P6SM SCT070 BKN100 
     FM230200 21005KT P6SM -SN SCT025 OVC080 
     FM231000 24005KT P6SM SCT090
       
KCXO 221723Z 2218/2318 36008KT P6SM SKC 
     FM230100 34003KT P6SM SKC
       
KCXP 221136Z 2212/2312 VRB04KT P6SM SCT250 
     FM222000 14008KT P6SM SCT150 BKN200 
     FM230200 VRB04KT P6SM SCT120 BKN200
       
KCYS 221730Z 2218/2318 30022G32KT P6SM BKN100 
     FM230000 29014KT P6SM SCT200 
     FM231500 28017G25KT P6SM BKN250